createdAt,value
2023-07-30T00:00:51.559Z,1.33
2023-07-30T00:03:18.386Z,1.27
2023-07-30T00:05:55.680Z,1.55
2023-07-30T00:08:22.849Z,1.63
2023-07-30T00:10:49.887Z,1.30
2023-07-30T00:13:16.611Z,1.50
2023-07-30T00:15:43.185Z,1.63
2023-07-30T00:18:09.735Z,1.10
2023-07-30T00:20:37.256Z,1.40
2023-07-30T00:23:04.042Z,1.33
2023-07-30T00:25:30.707Z,1.48
2023-07-30T00:27:57.427Z,1.23
2023-07-30T00:30:24.124Z,1.75
2023-07-30T00:32:50.714Z,1.10
2023-07-30T00:35:17.345Z,1.33
2023-07-30T00:37:43.996Z,1.38
2023-07-30T00:40:11.123Z,1.38
2023-07-30T00:42:37.843Z,1.33
2023-07-30T00:45:05.754Z,1.13
2023-07-30T00:47:32.579Z,1.80
2023-07-30T00:49:59.647Z,1.15
2023-07-30T00:52:27.160Z,1.23
2023-07-30T00:54:57.979Z,1.42
2023-07-30T00:57:24.877Z,2.08
2023-07-30T00:59:52.189Z,1.42
2023-07-30T01:02:18.994Z,1.63
2023-07-30T01:04:45.718Z,1.45
2023-07-30T01:07:12.641Z,1.70
2023-07-30T01:09:39.568Z,1.70
2023-07-30T01:12:07.233Z,2.63
2023-07-30T01:14:34.888Z,1.50
2023-07-30T01:17:01.488Z,1.55
2023-07-30T01:19:28.026Z,1.33
2023-07-30T01:21:54.519Z,1.80
2023-07-30T01:24:21.029Z,1.35
2023-07-30T01:26:54.529Z,1.42
2023-07-30T01:29:28.677Z,1.63
2023-07-30T01:32:05.348Z,1.40
2023-07-30T01:34:36.749Z,1.60
2023-07-30T01:37:05.740Z,1.55
2023-07-30T01:39:33.884Z,1.85
2023-07-30T01:42:00.403Z,2.13
2023-07-30T01:44:26.955Z,1.70
2023-07-30T01:46:53.595Z,1.50
2023-07-30T01:49:20.094Z,1.38
2023-07-30T01:51:47.044Z,1.63
2023-07-30T01:54:13.564Z,1.67
2023-07-30T01:56:40.321Z,2.03
2023-07-30T01:59:06.950Z,1.50
2023-07-30T02:01:33.674Z,1.70
2023-07-30T02:04:00.437Z,1.88
2023-07-30T02:06:27.013Z,2.22
2023-07-30T02:08:53.503Z,1.38
2023-07-30T02:11:20.093Z,1.98
2023-07-30T02:13:46.759Z,1.88
2023-07-30T02:16:13.326Z,1.58
2023-07-30T02:18:39.835Z,1.67
2023-07-30T02:21:06.342Z,2.13
2023-07-30T02:23:32.854Z,1.60
2023-07-30T02:25:59.357Z,2.20
2023-07-30T02:28:26.057Z,1.80
2023-07-30T02:30:52.729Z,2.22
2023-07-30T02:33:19.323Z,1.88
2023-07-30T02:35:45.845Z,2.67
2023-07-30T02:38:12.316Z,1.92
2023-07-30T02:40:38.954Z,1.83
2023-07-30T02:43:05.721Z,2.05
2023-07-30T02:45:32.260Z,2.08
2023-07-30T02:47:58.797Z,2.30
2023-07-30T02:50:25.414Z,1.85
2023-07-30T02:52:52.087Z,1.67
2023-07-30T02:55:19.685Z,1.75
2023-07-30T02:57:46.484Z,1.73
2023-07-30T03:00:13.812Z,1.77
2023-07-30T03:02:41.564Z,1.98
2023-07-30T03:05:08.447Z,2.00
2023-07-30T03:07:34.897Z,3.22
2023-07-30T03:10:01.485Z,2.15
2023-07-30T03:12:28.052Z,2.35
2023-07-30T03:14:54.576Z,2.03
2023-07-30T03:17:21.137Z,2.17
2023-07-30T03:19:47.873Z,2.35
2023-07-30T03:22:14.434Z,2.17
2023-07-30T03:24:40.981Z,2.55
2023-07-30T03:27:07.678Z,2.30
2023-07-30T03:29:34.205Z,2.53
2023-07-30T03:32:00.680Z,2.55
2023-07-30T03:34:27.201Z,2.88
2023-07-30T03:36:53.767Z,2.53
2023-07-30T03:39:20.283Z,2.65
2023-07-30T03:41:46.838Z,2.42
2023-07-30T03:44:13.319Z,2.70
2023-07-30T03:46:39.902Z,2.75
2023-07-30T03:49:06.471Z,2.53
2023-07-30T03:51:33.352Z,2.20
2023-07-30T03:54:00.020Z,2.70
2023-07-30T03:56:26.590Z,2.55
2023-07-30T03:58:53.054Z,3.03
2023-07-30T04:01:19.643Z,3.55
2023-07-30T04:03:46.230Z,2.42
2023-07-30T04:06:12.888Z,2.83
2023-07-30T04:08:39.434Z,2.97
2023-07-30T04:11:06.186Z,3.20
2023-07-30T04:13:32.778Z,2.80
2023-07-30T04:15:59.390Z,2.72
2023-07-30T04:18:26.011Z,2.97
2023-07-30T04:20:57.087Z,3.30
2023-07-30T04:23:23.834Z,3.22
2023-07-30T04:25:51.401Z,3.15
2023-07-30T04:28:18.427Z,3.47
2023-07-30T04:30:45.648Z,3.38
2023-07-30T04:33:12.286Z,3.15
2023-07-30T04:35:38.757Z,3.25
2023-07-30T04:38:05.262Z,3.38
2023-07-30T04:40:31.779Z,3.22
2023-07-30T04:42:58.292Z,3.00
2023-07-30T04:45:24.842Z,2.92
2023-07-30T04:47:51.429Z,3.55
2023-07-30T04:50:18.013Z,3.72
2023-07-30T04:52:44.522Z,3.40
2023-07-30T04:55:11.024Z,3.10
2023-07-30T04:57:37.536Z,2.83
2023-07-30T05:00:04.540Z,3.42
2023-07-30T05:02:31.283Z,3.25
2023-07-30T05:04:57.828Z,3.30
2023-07-30T05:07:24.578Z,3.55
2023-07-30T05:09:51.049Z,3.03
2023-07-30T05:12:17.630Z,3.45
2023-07-30T05:14:44.162Z,3.15
2023-07-30T05:17:10.671Z,3.90
2023-07-30T05:19:37.178Z,3.00
2023-07-30T05:22:03.880Z,3.58
2023-07-30T05:24:30.338Z,4.60
2023-07-30T05:26:56.802Z,4.65
2023-07-30T05:29:23.414Z,3.60
2023-07-30T05:31:50.162Z,3.53
2023-07-30T05:34:16.847Z,3.75
2023-07-30T05:36:43.530Z,3.63
2023-07-30T05:39:10.054Z,3.63
2023-07-30T05:41:36.923Z,3.15
2023-07-30T05:44:03.774Z,3.50
2023-07-30T05:46:30.522Z,2.97
2023-07-30T05:48:57.170Z,4.07
2023-07-30T05:51:23.803Z,4.32
2023-07-30T05:53:50.370Z,5.25
2023-07-30T05:56:19.467Z,4.57
2023-07-30T05:58:46.469Z,3.45
2023-07-30T06:01:13.108Z,3.75
2023-07-30T06:03:39.693Z,3.90
2023-07-30T06:06:06.193Z,4.13
2023-07-30T06:08:32.796Z,3.83
2023-07-30T06:11:04.426Z,3.58
2023-07-30T06:13:31.218Z,4.93
2023-07-30T06:15:57.782Z,3.88
2023-07-30T06:18:24.392Z,3.92
2023-07-30T06:20:50.936Z,4.18
2023-07-30T06:23:17.442Z,4.57
2023-07-30T06:25:43.951Z,5.35
2023-07-30T06:28:10.528Z,4.40
2023-07-30T06:30:37.881Z,4.15
2023-07-30T06:33:04.408Z,4.65
2023-07-30T06:35:30.920Z,4.53
2023-07-30T06:37:57.440Z,4.63
2023-07-30T06:40:24.492Z,4.85
2023-07-30T06:42:51.025Z,4.28
2023-07-30T06:45:17.828Z,4.53
2023-07-30T06:47:44.385Z,4.32
2023-07-30T06:50:11.281Z,4.22
2023-07-30T06:52:38.180Z,4.13
2023-07-30T06:55:05.023Z,5.68
2023-07-30T06:57:31.588Z,4.00
2023-07-30T06:59:59.176Z,4.10
2023-07-30T07:02:25.787Z,3.72
2023-07-30T07:04:52.567Z,4.50
2023-07-30T07:07:19.219Z,4.45
2023-07-30T07:09:45.759Z,4.20
2023-07-30T07:12:12.355Z,3.03
2023-07-30T07:14:40.279Z,3.28
2023-07-30T07:17:06.944Z,4.50
2023-07-30T07:19:37.466Z,3.20
2023-07-30T07:22:05.671Z,3.50
2023-07-30T07:24:32.423Z,3.42
2023-07-30T07:26:59.308Z,3.22
2023-07-30T07:29:26.052Z,3.80
2023-07-30T07:31:52.582Z,3.22
2023-07-30T07:34:19.104Z,2.65
2023-07-30T07:36:45.639Z,3.03
2023-07-30T07:39:12.588Z,2.90
2023-07-30T07:41:39.500Z,3.45
2023-07-30T07:44:06.209Z,2.30
2023-07-30T07:46:32.816Z,2.53
2023-07-30T07:48:59.875Z,2.70
2023-07-30T07:51:26.711Z,2.75
2023-07-30T07:53:53.654Z,2.67
2023-07-30T07:56:20.429Z,2.60
2023-07-30T07:58:47.112Z,2.30
2023-07-30T08:01:13.650Z,2.72
2023-07-30T08:03:40.323Z,2.75
2023-07-30T08:06:07.346Z,2.80
2023-07-30T08:08:33.979Z,2.40
2023-07-30T08:11:06.804Z,2.63
2023-07-30T08:13:33.401Z,2.97
2023-07-30T08:16:00.091Z,2.03
2023-07-30T08:18:28.696Z,2.30
2023-07-30T08:23:21.911Z,2.00
2023-07-30T08:25:48.567Z,2.35
2023-07-30T08:28:15.167Z,2.85
2023-07-30T08:30:41.818Z,2.53
2023-07-30T08:33:08.364Z,2.47
2023-07-30T08:35:35.020Z,2.35
2023-07-30T08:38:01.718Z,2.30
2023-07-30T08:40:28.377Z,1.95
2023-07-30T08:42:55.287Z,2.10
2023-07-30T08:45:22.213Z,2.28
2023-07-30T08:47:49.390Z,2.88
2023-07-30T08:50:16.159Z,1.98
2023-07-30T08:52:43.727Z,1.95
2023-07-30T08:55:11.487Z,1.75
2023-07-30T08:57:39.069Z,1.98
2023-07-30T09:00:12.473Z,1.40
2023-07-30T09:02:44.382Z,1.58
2023-07-30T09:05:12.923Z,2.00
2023-07-30T09:07:39.483Z,2.42
2023-07-30T09:10:06.536Z,2.15
2023-07-30T09:12:34.896Z,1.90
2023-07-30T09:15:04.321Z,2.00
2023-07-30T09:17:30.866Z,2.25
2023-07-30T09:20:00.539Z,2.08
2023-07-30T09:22:28.487Z,1.50
2023-07-30T09:24:56.266Z,1.73
2023-07-30T09:27:26.254Z,2.30
2023-07-30T09:29:54.426Z,1.70
2023-07-30T09:32:22.082Z,1.58
2023-07-30T09:34:49.214Z,1.88
2023-07-30T09:37:16.228Z,2.10
2023-07-30T09:39:42.960Z,1.90
2023-07-30T09:42:09.537Z,1.45
2023-07-30T09:44:39.054Z,2.05
2023-07-30T09:47:07.329Z,1.67
2023-07-30T09:49:34.239Z,2.03
2023-07-30T09:52:01.292Z,1.65
2023-07-30T09:54:27.958Z,1.10
2023-07-30T09:56:54.533Z,1.73
2023-07-30T09:59:21.097Z,1.42
2023-07-30T10:01:54.523Z,1.40
2023-07-30T10:04:21.873Z,1.38
2023-07-30T10:07:06.135Z,1.25
2023-07-30T10:09:36.503Z,1.10
2023-07-30T10:12:04.831Z,0.90
2023-07-30T10:14:31.598Z,1.38
2023-07-30T10:17:01.750Z,1.83
2023-07-30T10:19:29.710Z,1.25
2023-07-30T10:22:19.586Z,1.10
2023-07-30T10:25:08.674Z,1.05
2023-07-30T10:27:40.809Z,0.93
2023-07-30T10:30:13.037Z,0.77
2023-07-30T10:32:58.759Z,0.93
2023-07-30T10:35:47.198Z,1.13
2023-07-30T10:38:15.548Z,0.85
2023-07-30T10:40:42.412Z,1.00
2023-07-30T10:43:18.728Z,0.70
2023-07-30T10:45:52.023Z,1.13
2023-07-30T10:48:19.079Z,1.00
2023-07-30T10:50:49.655Z,1.17
2023-07-30T10:53:17.581Z,0.70
2023-07-30T10:55:44.248Z,1.20
2023-07-30T10:58:11.432Z,1.00
2023-07-30T11:00:39.090Z,0.90
2023-07-30T11:03:05.710Z,1.25
2023-07-30T11:05:32.318Z,0.88
2023-07-30T11:07:59.004Z,0.80
2023-07-30T11:10:25.811Z,1.00
2023-07-30T11:12:52.468Z,0.90
2023-07-30T11:15:19.131Z,0.90
2023-07-30T11:17:48.645Z,0.82
2023-07-30T11:20:28.246Z,0.52
2023-07-30T11:22:55.133Z,0.65
2023-07-30T11:25:21.891Z,0.80
2023-07-30T11:27:49.664Z,0.98
2023-07-30T11:30:16.297Z,0.88
2023-07-30T11:32:43.945Z,0.88
2023-07-30T11:35:10.728Z,0.75
2023-07-30T11:37:41.002Z,0.63
2023-07-30T11:40:10.328Z,0.70
2023-07-30T11:42:37.901Z,0.95
2023-07-30T11:45:21.176Z,0.75
2023-07-30T11:47:48.814Z,0.80
2023-07-30T11:50:16.399Z,0.60
2023-07-30T11:52:57.313Z,0.60
2023-07-30T11:55:25.458Z,0.75
2023-07-30T11:57:52.739Z,0.82
2023-07-30T12:00:22.537Z,0.70
2023-07-30T12:02:49.279Z,0.70
2023-07-30T12:05:17.979Z,0.80
2023-07-30T12:07:44.563Z,0.77
2023-07-30T12:10:12.893Z,0.50
2023-07-30T12:12:46.569Z,0.80
2023-07-30T12:15:14.012Z,0.80
2023-07-30T12:17:40.610Z,0.70
2023-07-30T12:20:07.852Z,0.88
2023-07-30T12:22:36.414Z,0.52
2023-07-30T12:25:06.765Z,0.60
2023-07-30T12:27:33.336Z,0.75
2023-07-30T12:29:59.829Z,0.63
2023-07-30T12:32:29.234Z,0.65
2023-07-30T12:34:56.046Z,0.40
2023-07-30T12:37:22.918Z,0.60
2023-07-30T12:39:49.616Z,0.70
2023-07-30T12:42:16.298Z,0.60
2023-07-30T12:44:43.961Z,0.60
2023-07-30T12:47:10.637Z,0.60
2023-07-30T12:49:37.279Z,0.70
2023-07-30T12:52:04.042Z,0.82
2023-07-30T12:54:30.627Z,0.80
2023-07-30T12:56:57.128Z,0.57
2023-07-30T12:59:24.027Z,0.50
2023-07-30T13:01:50.621Z,0.80
2023-07-30T13:04:18.031Z,0.63
2023-07-30T13:06:44.657Z,0.40
2023-07-30T13:09:11.142Z,0.50
2023-07-30T13:11:38.389Z,0.60
2023-07-30T13:14:05.302Z,0.60
2023-07-30T13:16:33.342Z,0.73
2023-07-30T13:19:00.180Z,0.70
2023-07-30T13:21:26.728Z,0.90
2023-07-30T13:23:53.356Z,1.10
2023-07-30T13:26:20.090Z,1.65
2023-07-30T13:28:46.605Z,0.55
2023-07-30T13:31:13.210Z,0.70
2023-07-30T13:33:39.831Z,0.50
2023-07-30T13:36:07.233Z,0.73
2023-07-30T13:38:33.781Z,0.50
2023-07-30T13:41:00.256Z,0.70
2023-07-30T13:43:26.803Z,0.50
2023-07-30T13:45:53.876Z,0.50
2023-07-30T13:48:21.117Z,0.82
2023-07-30T13:50:47.737Z,0.57
2023-07-30T13:53:14.874Z,0.90
2023-07-30T13:55:41.427Z,0.40
2023-07-30T13:58:08.166Z,0.63
2023-07-30T14:00:34.721Z,0.85
2023-07-30T14:03:01.412Z,0.75
2023-07-30T14:05:29.599Z,0.75
2023-07-30T14:07:57.866Z,0.80
2023-07-30T14:10:25.068Z,0.57
2023-07-30T14:12:51.686Z,0.63
2023-07-30T14:15:18.443Z,0.47
2023-07-30T14:17:45.057Z,0.60
2023-07-30T14:20:11.901Z,0.93
2023-07-30T14:22:38.508Z,0.57
2023-07-30T14:25:05.581Z,0.65
2023-07-30T14:27:32.353Z,0.50
2023-07-30T14:29:58.900Z,0.93
2023-07-30T14:32:25.472Z,0.73
2023-07-30T14:34:52.019Z,0.98
2023-07-30T14:37:18.520Z,1.00
2023-07-30T14:39:45.665Z,1.00
2023-07-30T14:42:12.344Z,2.53
2023-07-30T14:44:39.554Z,1.65
2023-07-30T14:47:06.468Z,2.25
2023-07-30T14:49:33.064Z,1.73
2023-07-30T14:51:59.603Z,1.00
2023-07-30T14:54:26.272Z,0.90
2023-07-30T14:56:52.935Z,1.15
2023-07-30T14:59:19.674Z,0.80
2023-07-30T15:01:46.239Z,0.80
2023-07-30T15:04:12.782Z,1.20
2023-07-30T15:06:39.670Z,1.15
2023-07-30T15:09:06.714Z,1.45
2023-07-30T15:11:33.236Z,0.80
2023-07-30T15:13:59.716Z,1.63
2023-07-30T15:16:26.360Z,0.80
2023-07-30T15:18:53.040Z,1.35
2023-07-30T15:21:20.347Z,1.60
2023-07-30T15:23:47.072Z,0.90
2023-07-30T15:26:13.661Z,0.80
2023-07-30T15:28:41.908Z,1.15
2023-07-30T15:31:08.533Z,1.20
2023-07-30T15:33:36.562Z,1.00
2023-07-30T15:36:03.990Z,0.90
2023-07-30T15:38:30.523Z,1.40
2023-07-30T15:40:57.041Z,1.00
2023-07-30T15:43:23.816Z,1.00
2023-07-30T15:45:53.993Z,1.23
2023-07-30T15:48:20.793Z,1.15
2023-07-30T15:50:47.326Z,1.15
2023-07-30T15:53:13.877Z,1.33
2023-07-30T15:55:40.352Z,1.17
2023-07-30T15:58:07.105Z,0.93
2023-07-30T16:00:34.384Z,0.98
2023-07-30T16:03:04.992Z,1.42
2023-07-30T16:05:31.672Z,1.42
2023-07-30T16:07:58.272Z,1.25
2023-07-30T16:10:24.808Z,1.23
2023-07-30T16:12:51.465Z,1.20
2023-07-30T16:15:18.111Z,1.20
2023-07-30T16:17:44.709Z,1.65
2023-07-30T16:20:11.651Z,1.60
2023-07-30T16:22:38.335Z,1.30
2023-07-30T16:25:07.724Z,1.80
2023-07-30T16:27:35.480Z,1.50
2023-07-30T16:30:02.740Z,1.55
2023-07-30T16:32:29.281Z,1.60
2023-07-30T16:34:55.802Z,1.45
2023-07-30T16:37:23.443Z,1.35
2023-07-30T16:39:50.228Z,1.35
2023-07-30T16:42:16.734Z,1.60
2023-07-30T16:44:43.313Z,1.30
2023-07-30T16:47:09.882Z,1.88
2023-07-30T16:49:36.477Z,1.02
2023-07-30T16:52:02.986Z,1.30
2023-07-30T16:54:29.509Z,1.52
2023-07-30T16:56:56.008Z,1.80
2023-07-30T16:59:22.533Z,1.70
2023-07-30T17:01:49.003Z,2.40
2023-07-30T17:04:15.566Z,1.65
2023-07-30T17:06:42.177Z,2.00
2023-07-30T17:09:08.776Z,1.75
2023-07-30T17:11:37.677Z,1.90
2023-07-30T17:14:04.410Z,3.53
2023-07-30T17:16:30.958Z,1.90
2023-07-30T17:18:57.543Z,1.85
2023-07-30T17:21:24.433Z,1.65
2023-07-30T17:23:51.003Z,1.42
2023-07-30T17:26:17.534Z,1.45
2023-07-30T17:28:44.085Z,1.80
2023-07-30T17:31:13.872Z,1.20
2023-07-30T17:33:40.540Z,1.42
2023-07-30T17:36:09.373Z,1.40
2023-07-30T17:38:36.439Z,1.17
2023-07-30T17:41:03.091Z,1.50
2023-07-30T17:43:30.041Z,1.35
2023-07-30T17:45:56.638Z,1.20
2023-07-30T17:48:23.719Z,1.10
2023-07-30T17:50:50.417Z,1.40
2023-07-30T17:53:16.942Z,1.40
2023-07-30T17:55:44.401Z,1.23
2023-07-30T17:58:11.997Z,1.10
2023-07-30T18:00:46.310Z,1.13
2023-07-30T18:03:15.742Z,1.20
2023-07-30T18:05:48.181Z,0.90
2023-07-30T18:08:16.340Z,1.10
2023-07-30T18:10:45.140Z,0.80
2023-07-30T18:13:12.458Z,0.60
2023-07-30T18:15:38.958Z,0.90
2023-07-30T18:18:05.613Z,0.70
2023-07-30T18:20:32.900Z,0.70
2023-07-30T18:22:59.596Z,0.80
2023-07-30T18:25:26.609Z,1.55
2023-07-30T18:27:53.154Z,1.15
2023-07-30T18:30:19.800Z,1.08
2023-07-30T18:32:46.477Z,1.02
2023-07-30T18:35:13.581Z,1.00
2023-07-30T18:37:40.205Z,1.05
2023-07-30T18:40:08.108Z,0.95
2023-07-30T18:42:36.725Z,1.02
2023-07-30T18:45:03.883Z,0.93
2023-07-30T18:47:30.545Z,1.20
2023-07-30T18:49:57.331Z,0.95
2023-07-30T18:52:23.891Z,1.65
2023-07-30T18:54:50.593Z,1.23
2023-07-30T18:57:17.119Z,1.30
2023-07-30T18:59:43.716Z,1.58
2023-07-30T19:02:11.258Z,1.10
2023-07-30T19:04:37.844Z,1.30
2023-07-30T19:07:04.630Z,1.48
2023-07-30T19:09:31.241Z,1.40
2023-07-30T19:11:57.818Z,1.58
2023-07-30T19:14:24.363Z,1.38
2023-07-30T19:16:51.000Z,1.40
2023-07-30T19:19:17.674Z,1.30
2023-07-30T19:21:44.404Z,1.20
2023-07-30T19:24:11.820Z,1.58
2023-07-30T19:26:38.710Z,1.33
2023-07-30T19:29:05.389Z,1.40
2023-07-30T19:31:32.078Z,1.65
2023-07-30T19:34:11.761Z,1.52
2023-07-30T19:36:40.018Z,2.15
2023-07-30T19:39:06.839Z,1.92
2023-07-30T19:41:33.908Z,1.63
2023-07-30T19:44:00.644Z,1.73
2023-07-30T19:46:27.334Z,1.48
2023-07-30T19:48:54.734Z,1.90
2023-07-30T19:51:21.885Z,1.73
2023-07-30T19:53:48.554Z,1.60
2023-07-30T19:56:15.156Z,1.60
2023-07-30T19:58:41.705Z,2.10
2023-07-30T20:01:08.373Z,1.65
2023-07-30T20:03:34.892Z,1.85
2023-07-30T20:06:03.675Z,1.50
2023-07-30T20:08:30.524Z,1.73
2023-07-30T20:10:58.474Z,1.67
2023-07-30T20:13:25.439Z,1.95
2023-07-30T20:15:53.160Z,2.25
2023-07-30T20:18:19.766Z,1.60
2023-07-30T20:20:46.392Z,1.83
2023-07-30T20:23:13.230Z,1.40
2023-07-30T20:25:40.169Z,1.33
2023-07-30T20:28:08.249Z,1.55
2023-07-30T20:30:36.311Z,1.58
2023-07-30T20:33:03.295Z,1.27
2023-07-30T20:35:30.060Z,1.42
2023-07-30T20:38:00.282Z,1.13
2023-07-30T20:40:28.004Z,1.40
2023-07-30T20:42:55.693Z,1.00
2023-07-30T20:45:23.599Z,1.23
2023-07-30T20:47:51.459Z,1.48
2023-07-30T20:50:19.088Z,1.33
2023-07-30T20:52:49.021Z,1.60
2023-07-30T20:55:17.098Z,1.48
2023-07-30T20:57:43.799Z,1.63
2023-07-30T21:00:11.354Z,1.20
2023-07-30T21:02:38.889Z,1.27
2023-07-30T21:05:06.168Z,1.02
2023-07-30T21:07:32.825Z,1.42
2023-07-30T21:09:59.414Z,1.20
2023-07-30T21:12:26.141Z,1.40
2023-07-30T21:14:52.713Z,0.95
2023-07-30T21:17:20.313Z,1.13
2023-07-30T21:19:47.808Z,1.13
2023-07-30T21:22:14.468Z,1.35
2023-07-30T21:24:41.194Z,1.50
2023-07-30T21:27:08.577Z,1.10
2023-07-30T21:29:35.233Z,1.13
2023-07-30T21:32:01.933Z,1.13
2023-07-30T21:34:28.555Z,1.30
2023-07-30T21:36:55.072Z,1.63
2023-07-30T21:39:21.653Z,1.42
2023-07-30T21:41:48.330Z,2.17
2023-07-30T21:44:14.859Z,1.30
2023-07-30T21:46:41.941Z,1.48
2023-07-30T21:49:09.005Z,1.02
2023-07-30T21:51:35.588Z,1.65
2023-07-30T21:54:02.143Z,1.30
2023-07-30T21:56:28.683Z,0.95
2023-07-30T21:58:55.292Z,1.13
2023-07-30T22:01:21.836Z,0.82
2023-07-30T22:03:48.480Z,1.20
2023-07-30T22:06:15.032Z,0.90
2023-07-30T22:08:42.010Z,1.02
2023-07-30T22:11:08.639Z,1.02
2023-07-30T22:13:35.231Z,0.95
2023-07-30T22:16:01.825Z,0.98
2023-07-30T22:18:28.361Z,1.00
2023-07-30T22:20:54.877Z,1.40
2023-07-30T22:23:21.368Z,0.82
2023-07-30T22:25:48.105Z,1.08
2023-07-30T22:28:14.634Z,1.38
2023-07-30T22:30:41.677Z,1.17
2023-07-30T22:33:08.604Z,1.05
2023-07-30T22:35:36.436Z,1.60
2023-07-30T22:38:03.161Z,1.05
2023-07-30T22:40:30.687Z,1.23
2023-07-30T22:42:57.393Z,1.02
2023-07-30T22:45:24.141Z,1.02
2023-07-30T22:47:50.710Z,0.90
2023-07-30T22:50:17.396Z,0.93
2023-07-30T22:52:43.940Z,0.93
2023-07-30T22:55:10.494Z,0.90
2023-07-30T22:57:37.130Z,0.88
2023-07-30T23:00:05.696Z,0.82
2023-07-30T23:02:32.740Z,0.65
2023-07-30T23:04:59.375Z,0.82
2023-07-30T23:07:25.860Z,0.63
2023-07-30T23:09:52.446Z,0.73
2023-07-30T23:12:19.166Z,0.57
2023-07-30T23:14:45.691Z,0.60
2023-07-30T23:17:12.180Z,0.93
2023-07-30T23:19:38.862Z,0.63
2023-07-30T23:22:05.507Z,0.80
2023-07-30T23:24:33.754Z,0.50
2023-07-30T23:27:00.267Z,0.82
2023-07-30T23:29:26.788Z,0.73
2023-07-30T23:31:54.319Z,0.70
2023-07-30T23:34:21.050Z,0.70
2023-07-30T23:36:47.633Z,0.43
2023-07-30T23:39:14.276Z,0.75
2023-07-30T23:41:40.790Z,0.52
2023-07-30T23:44:07.327Z,0.73
2023-07-30T23:46:33.871Z,0.60
2023-07-30T23:49:00.411Z,0.43
2023-07-30T23:51:26.968Z,0.45
2023-07-30T23:53:54.116Z,0.52
2023-07-30T23:56:20.830Z,0.50
2023-07-30T23:58:47.456Z,0.63
